EDT,Max TemperatureF,Mean TemperatureF,Min TemperatureF,Max Dew PointF,MeanDew PointF,Min DewpointF,Max Humidity, Mean Humidity, Min Humidity, Max Sea Level PressureIn, Mean Sea Level PressureIn, Min Sea Level PressureIn, Max VisibilityMiles, Mean VisibilityMiles, Min VisibilityMiles, Max Wind SpeedMPH, Mean Wind SpeedMPH, Max Gust SpeedMPH,PrecipitationIn, CloudCover, Events, WindDirDegrees
2012-10-1,75,58,42,66,50,43,100,89,41,30.00,29.96,29.93,10,7,0,9,2,,0.01,3,Fog,171
2012-10-2,62,60,59,63,60,59,100,100,100,30.00,29.97,29.93,10,4,0,9,2,,0.27,8,Rain,21
2012-10-3,80,71,62,72,65,63,100,95,61,30.15,30.07,29.98,10,5,0,6,1,,0.04,5,Fog-Rain,269
2012-10-4,80,68,55,72,63,55,100,93,57,30.17,30.15,30.03,10,6,2,9,1,,0.00,3,Rain,300
2012-10-5,80,66,53,63,57,54,100,86,48,30.17,30.10,29.97,10,10,5,10,4,,0.00,0,,191
2012-10-6,75,60,44,63,52,43,100,89,52,30.09,29.96,29.88,10,8,2,22,2,26,0.00,1,,300
2012-10-7,55,48,41,48,45,41,100,95,67,30.21,30.12,30.06,10,9,2,7,1,,0.00,5,Rain,269
2012-10-8,51,43,35,45,40,36,100,94,67,30.33,30.25,30.01,10,8,2,8,1,,0.00,4,Rain,26
2012-10-9,66,55,44,52,46,43,100,89,43,30.26,30.19,30.10,10,9,7,7,2,,0.00,8,,25
2012-10-10,68,57,46,54,49,41,100,86,49,30.12,30.03,29.89,10,8,1,21,2,26,0.00,6,,278
2012-10-11,62,50,37,41,36,32,100,68,37,30.31,30.22,30.12,10,10,10,16,7,23,0.00,0,,283
2012-10-12,62,48,33,45,37,34,100,86,44,30.48,30.27,30.17,10,10,10,14,4,21,0.00,1,,189
2012-10-13,60,44,28,39,34,28,100,82,38,30.56,30.46,30.30,10,9,2,9,1,,0.00,0,Snow,193
2012-10-14,73,57,41,55,47,37,93,77,50,30.28,30.15,29.95,10,10,10,13,5,20,0.00,2,,201
2012-10-15,66,60,53,64,57,46,100,83,68,29.94,29.81,29.71,10,9,2,13,9,21,0.00,4,Rain,224
2012-10-16,64,52,39,46,43,39,100,78,45,29.96,29.90,29.85,10,10,4,14,7,22,0.00,3,,301
2012-10-17,69,52,35,48,41,36,100,89,46,30.05,29.98,29.94,10,7,0,10,1,,0.00,0,Fog-Snow,205
2012-10-18,69,53,37,57,48,37,100,92,56,29.97,29.92,29.84,10,5,0,12,2,18,0.07,6,Fog-Rain-Thunderstorm,108
2012-10-19,71,60,48,63,58,48,100,98,73,29.86,29.76,29.64,10,6,0,8,3,,0.03,7,Fog-Rain-Thunderstorm,344
2012-10-20,64,54,42,50,44,39,100,83,45,29.97,29.80,29.69,10,10,3,14,2,22,0.00,2,,251
2012-10-21,64,52,41,46,41,39,100,81,45,30.17,30.07,29.98,10,10,7,13,4,20,0.00,0,,278
2012-10-22,73,54,35,50,42,36,100,88,41,30.24,30.17,30.13,10,9,5,12,2,,0.00,0,Snow,200
2012-10-23,80,62,44,61,51,45,100,91,47,30.16,30.11,30.06,10,10,7,8,2,,0.00,1,,169
2012-10-24,82,66,50,61,54,50,100,89,42,30.16,30.12,30.09,10,7,2,8,0,,0.00,2,,302
2012-10-25,66,58,50,61,57,50,100,95,83,30.25,30.20,30.15,10,6,2,6,1,,0.00,6,,108
2012-10-26,69,64,59,61,59,55,100,92,68,30.22,30.17,30.10,10,7,3,6,2,,0.00,8,,106
2012-10-27,69,62,55,59,55,50,100,89,56,30.09,29.99,29.91,10,10,7,8,4,,0.00,6,,32
2012-10-28,57,54,50,54,52,48,100,93,72,29.91,29.78,28.91,10,8,5,15,8,20,0.12,6,Rain,18
2012-10-29,50,49,46,50,49,45,100,99,93,29.73,29.45,28.77,10,8,2,24,12,44,0.24,8,Rain,359
2012-10-30,,,,,,,,,,29.28,29.18,29.05,7,5,3,17,13,20,0.00,8,Rain,208
2012-10-31,,,,,,,,,,,,,10,9,7,16,10,18,0.00,7,,252